sensor_id;sensor_type;location;lat;lon;timestamp;pressure;altitude;pressure_sealevel;temperature
74750;BMP280;63269;53.330;-6.288;2022-10-30T14:11:44;100143.38;;;22.48
74750;BMP280;63269;53.330;-6.288;2022-10-30T14:14:29;100148.50;;;22.36
74750;BMP280;63269;53.330;-6.288;2022-10-30T14:17:13;100147.94;;;22.32
74750;BMP280;63269;53.330;-6.288;2022-10-30T14:22:28;100145.47;;;22.29
74750;BMP280;63269;53.330;-6.288;2022-10-30T14:24:54;100150.34;;;22.30
74750;BMP280;63269;53.330;-6.288;2022-10-30T14:27:26;100161.75;;;22.31
74750;BMP280;63269;53.330;-6.288;2022-10-30T14:29:52;100160.72;;;22.28
74750;BMP280;63269;53.330;-6.288;2022-10-30T14:36:21;100187.03;;;22.44
74750;BMP280;63269;53.330;-6.288;2022-10-30T14:55:32;100208.34;;;22.54
74750;BMP280;63269;53.330;-6.288;2022-10-30T15:00:41;100216.47;;;22.59
74750;BMP280;63269;53.330;-6.288;2022-10-30T15:03:16;100217.94;;;22.60
74750;BMP280;63269;53.330;-6.288;2022-10-30T15:05:56;100216.00;;;22.61
74750;BMP280;63269;53.330;-6.288;2022-10-30T15:11:29;100226.97;;;22.63
74750;BMP280;63269;53.330;-6.288;2022-10-30T15:14:11;100231.88;;;22.64
74750;BMP280;63269;53.330;-6.288;2022-10-30T15:16:38;100239.91;;;22.64
74750;BMP280;63269;53.330;-6.288;2022-10-30T15:19:07;100243.31;;;22.65
74750;BMP280;63269;53.330;-6.288;2022-10-30T15:21:44;100240.91;;;22.67
74750;BMP280;63269;53.330;-6.288;2022-10-30T15:24:18;100245.06;;;22.68
74750;BMP280;63269;53.330;-6.288;2022-10-30T15:26:49;100251.16;;;22.69
74750;BMP280;63269;53.330;-6.288;2022-10-30T15:29:33;100255.31;;;22.70
74750;BMP280;63269;53.330;-6.288;2022-10-30T15:34:28;100262.59;;;22.69
74750;BMP280;63269;53.330;-6.288;2022-10-30T15:36:54;100270.13;;;22.71
74750;BMP280;63269;53.330;-6.288;2022-10-30T15:39:20;100266.28;;;22.72
74750;BMP280;63269;53.330;-6.288;2022-10-30T15:42:00;100260.19;;;22.71
74750;BMP280;63269;53.330;-6.288;2022-10-30T15:44:28;100263.59;;;22.72
74750;BMP280;63269;53.330;-6.288;2022-10-30T15:46:56;100268.22;;;22.71
74750;BMP280;63269;53.330;-6.288;2022-10-30T15:49:30;100263.88;;;22.74
74750;BMP280;63269;53.330;-6.288;2022-10-30T15:51:57;100265.81;;;22.73
74750;BMP280;63269;53.330;-6.288;2022-10-30T15:54:24;100272.63;;;22.74
74750;BMP280;63269;53.330;-6.288;2022-10-30T15:56:57;100274.13;;;22.75
74750;BMP280;63269;53.330;-6.288;2022-10-30T15:59:24;100282.16;;;22.75
74750;BMP280;63269;53.330;-6.288;2022-10-30T16:01:53;100280.22;;;22.76
74750;BMP280;63269;53.330;-6.288;2022-10-30T16:04:37;100297.75;;;22.77
74750;BMP280;63269;53.330;-6.288;2022-10-30T16:07:25;100293.13;;;22.77
74750;BMP280;63269;53.330;-6.288;2022-10-30T16:09:58;100303.81;;;22.77
74750;BMP280;63269;53.330;-6.288;2022-10-30T16:12:26;100298.00;;;22.79
74750;BMP280;63269;53.330;-6.288;2022-10-30T16:14:57;100296.50;;;22.78
74750;BMP280;63269;53.330;-6.288;2022-10-30T16:17:25;100300.69;;;22.79
74750;BMP280;63269;53.330;-6.288;2022-10-30T16:19:53;100303.63;;;22.81
74750;BMP280;63269;53.330;-6.288;2022-10-30T16:22:26;100291.91;;;22.78
74750;BMP280;63269;53.330;-6.288;2022-10-30T16:24:53;100302.16;;;22.80
74750;BMP280;63269;53.330;-6.288;2022-10-30T16:27:21;100304.84;;;22.80
74750;BMP280;63269;53.330;-6.288;2022-10-30T16:29:52;100302.63;;;22.78
74750;BMP280;63269;53.330;-6.288;2022-10-30T16:32:23;100309.88;;;22.78
74750;BMP280;63269;53.330;-6.288;2022-10-30T16:34:49;100312.28;;;22.76
74750;BMP280;63269;53.330;-6.288;2022-10-30T16:37:21;100321.50;;;22.75
74750;BMP280;63269;53.330;-6.288;2022-10-30T16:39:49;100320.03;;;22.74
74750;BMP280;63269;53.330;-6.288;2022-10-30T16:42:20;100324.66;;;22.73
74750;BMP280;63269;53.330;-6.288;2022-10-30T16:44:46;100332.38;;;22.71
74750;BMP280;63269;53.330;-6.288;2022-10-30T16:49:52;100338.63;;;22.68
74750;BMP280;63269;53.330;-6.288;2022-10-30T16:52:21;100346.34;;;22.66
74750;BMP280;63269;53.330;-6.288;2022-10-30T16:54:58;100341.47;;;22.64
74750;BMP280;63269;53.330;-6.288;2022-10-30T16:57:27;100353.34;;;22.63
74750;BMP280;63269;53.330;-6.288;2022-10-30T16:59:54;100350.41;;;22.61
74750;BMP280;63269;53.330;-6.288;2022-10-30T17:02:22;100353.09;;;22.61
74750;BMP280;63269;53.330;-6.288;2022-10-30T17:07:36;100358.31;;;22.56
74750;BMP280;63269;53.330;-6.288;2022-10-30T17:10:02;100366.81;;;22.54
74750;BMP280;63269;53.330;-6.288;2022-10-30T17:12:28;100362.91;;;22.55
74750;BMP280;63269;53.330;-6.288;2022-10-30T17:15:13;100365.31;;;22.53
74750;BMP280;63269;53.330;-6.288;2022-10-30T17:17:40;100377.19;;;22.52
74750;BMP280;63269;53.330;-6.288;2022-10-30T17:22:43;100391.31;;;22.53
74750;BMP280;63269;53.330;-6.288;2022-10-30T17:25:16;100386.94;;;22.55
74750;BMP280;63269;53.330;-6.288;2022-10-30T17:27:49;100394.53;;;22.57
74750;BMP280;63269;53.330;-6.288;2022-10-30T17:32:59;100393.34;;;22.58
74750;BMP280;63269;53.330;-6.288;2022-10-30T17:35:25;100398.53;;;22.61
74750;BMP280;63269;53.330;-6.288;2022-10-30T17:37:51;100393.91;;;22.62
74750;BMP280;63269;53.330;-6.288;2022-10-30T17:40:17;100399.97;;;22.62
74750;BMP280;63269;53.330;-6.288;2022-10-30T17:42:43;100400.75;;;22.63
74750;BMP280;63269;53.330;-6.288;2022-10-30T17:45:12;100402.50;;;22.66
74750;BMP280;63269;53.330;-6.288;2022-10-30T17:47:38;100408.91;;;22.69
74750;BMP280;63269;53.330;-6.288;2022-10-30T17:50:04;100416.16;;;22.68
74750;BMP280;63269;53.330;-6.288;2022-10-30T17:52:30;100423.75;;;22.70
74750;BMP280;63269;53.330;-6.288;2022-10-30T17:54:56;100424.75;;;22.72
74750;BMP280;63269;53.330;-6.288;2022-10-30T17:57:22;100428.44;;;22.75
74750;BMP280;63269;53.330;-6.288;2022-10-30T17:59:49;100433.63;;;22.78
74750;BMP280;63269;53.330;-6.288;2022-10-30T18:02:17;100431.53;;;22.82
74750;BMP280;63269;53.330;-6.288;2022-10-30T18:04:43;100433.75;;;22.84
74750;BMP280;63269;53.330;-6.288;2022-10-30T18:07:10;100437.16;;;22.84
74750;BMP280;63269;53.330;-6.288;2022-10-30T18:09:36;100435.53;;;22.87
74750;BMP280;63269;53.330;-6.288;2022-10-30T18:12:03;100442.78;;;22.86
74750;BMP280;63269;53.330;-6.288;2022-10-30T18:14:29;100451.56;;;22.87
74750;BMP280;63269;53.330;-6.288;2022-10-30T18:16:54;100445.94;;;22.85
74750;BMP280;63269;53.330;-6.288;2022-10-30T18:19:20;100452.47;;;22.84
74750;BMP280;63269;53.330;-6.288;2022-10-30T18:21:45;100439.13;;;22.84
74750;BMP280;63269;53.330;-6.288;2022-10-30T18:24:14;100451.00;;;22.83
74750;BMP280;63269;53.330;-6.288;2022-10-30T18:26:40;100446.56;;;22.80
74750;BMP280;63269;53.330;-6.288;2022-10-30T18:29:06;100445.06;;;22.79
74750;BMP280;63269;53.330;-6.288;2022-10-30T18:31:31;100448.22;;;22.77
74750;BMP280;63269;53.330;-6.288;2022-10-30T18:33:57;100449.38;;;22.76
74750;BMP280;63269;53.330;-6.288;2022-10-30T18:36:23;100452.50;;;22.75
74750;BMP280;63269;53.330;-6.288;2022-10-30T18:38:50;100451.47;;;22.72
74750;BMP280;63269;53.330;-6.288;2022-10-30T18:41:22;100455.38;;;22.71
74750;BMP280;63269;53.330;-6.288;2022-10-30T18:43:48;100483.75;;;22.69
74750;BMP280;63269;53.330;-6.288;2022-10-30T18:46:14;100474.97;;;22.68
74750;BMP280;63269;53.330;-6.288;2022-10-30T18:48:41;100469.34;;;22.66
74750;BMP280;63269;53.330;-6.288;2022-10-30T18:51:17;100476.66;;;22.66
74750;BMP280;63269;53.330;-6.288;2022-10-30T18:53:43;100484.34;;;22.63
74750;BMP280;63269;53.330;-6.288;2022-10-30T18:56:22;100486.28;;;22.63
74750;BMP280;63269;53.330;-6.288;2022-10-30T18:58:48;100481.84;;;22.60
74750;BMP280;63269;53.330;-6.288;2022-10-30T19:01:15;100483.03;;;22.59
74750;BMP280;63269;53.330;-6.288;2022-10-30T19:03:41;100482.28;;;22.58
74750;BMP280;63269;53.330;-6.288;2022-10-30T19:06:12;100487.34;;;22.56
74750;BMP280;63269;53.330;-6.288;2022-10-30T19:08:38;100487.09;;;22.54
74750;BMP280;63269;53.330;-6.288;2022-10-30T19:11:03;100500.56;;;22.51
74750;BMP280;63269;53.330;-6.288;2022-10-30T19:13:29;100495.97;;;22.51
74750;BMP280;63269;53.330;-6.288;2022-10-30T19:15:55;100493.03;;;22.49
74750;BMP280;63269;53.330;-6.288;2022-10-30T19:18:20;100501.47;;;22.48
74750;BMP280;63269;53.330;-6.288;2022-10-30T19:20:49;100504.63;;;22.46
74750;BMP280;63269;53.330;-6.288;2022-10-30T19:23:17;100504.63;;;22.46
74750;BMP280;63269;53.330;-6.288;2022-10-30T19:25:43;100502.09;;;22.42
74750;BMP280;63269;53.330;-6.288;2022-10-30T19:28:10;100507.44;;;22.42
74750;BMP280;63269;53.330;-6.288;2022-10-30T19:30:37;100499.13;;;22.40
74750;BMP280;63269;53.330;-6.288;2022-10-30T19:33:02;100504.19;;;22.38
74750;BMP280;63269;53.330;-6.288;2022-10-30T19:35:28;100499.72;;;22.35
74750;BMP280;63269;53.330;-6.288;2022-10-30T19:37:53;100499.72;;;22.35
74750;BMP280;63269;53.330;-6.288;2022-10-30T19:40:27;100505.06;;;22.35
74750;BMP280;63269;53.330;-6.288;2022-10-30T19:42:53;100513.09;;;22.35
74750;BMP280;63269;53.330;-6.288;2022-10-30T19:45:21;100508.50;;;22.36
74750;BMP280;63269;53.330;-6.288;2022-10-30T19:47:52;100505.53;;;22.34
74750;BMP280;63269;53.330;-6.288;2022-10-30T19:50:29;100505.53;;;22.34
74750;BMP280;63269;53.330;-6.288;2022-10-30T19:52:57;100512.06;;;22.33
74750;BMP280;63269;53.330;-6.288;2022-10-30T19:55:24;100510.59;;;22.32
74750;BMP280;63269;53.330;-6.288;2022-10-30T19:57:50;100514.44;;;22.31
74750;BMP280;63269;53.330;-6.288;2022-10-30T20:00:25;100508.38;;;22.30
74750;BMP280;63269;53.330;-6.288;2022-10-30T20:02:52;100508.81;;;22.29
74750;BMP280;63269;53.330;-6.288;2022-10-30T20:05:20;100505.38;;;22.28
74750;BMP280;63269;53.330;-6.288;2022-10-30T20:08:00;100510.00;;;22.28
74750;BMP280;63269;53.330;-6.288;2022-10-30T20:10:28;100509.22;;;22.27
74750;BMP280;63269;53.330;-6.288;2022-10-30T20:12:53;100523.06;;;22.26
74750;BMP280;63269;53.330;-6.288;2022-10-30T20:15:21;100519.66;;;22.25
74750;BMP280;63269;53.330;-6.288;2022-10-30T20:17:47;100522.03;;;22.23
74750;BMP280;63269;53.330;-6.288;2022-10-30T20:20:27;100520.81;;;22.24
74750;BMP280;63269;53.330;-6.288;2022-10-30T20:22:53;100520.56;;;22.22
74750;BMP280;63269;53.330;-6.288;2022-10-30T20:25:20;100524.41;;;22.21
74750;BMP280;63269;53.330;-6.288;2022-10-30T20:27:47;100524.41;;;22.21
74750;BMP280;63269;53.330;-6.288;2022-10-30T20:30:21;100523.66;;;22.20
74750;BMP280;63269;53.330;-6.288;2022-10-30T20:32:47;100521.00;;;22.20
74750;BMP280;63269;53.330;-6.288;2022-10-30T20:35:14;100519.50;;;22.19
74750;BMP280;63269;53.330;-6.288;2022-10-30T20:37:41;100510.75;;;22.19
74750;BMP280;63269;53.330;-6.288;2022-10-30T20:40:12;100522.16;;;22.19
74750;BMP280;63269;53.330;-6.288;2022-10-30T20:42:38;100518.47;;;22.17
74750;BMP280;63269;53.330;-6.288;2022-10-30T20:45:04;100518.03;;;22.18
74750;BMP280;63269;53.330;-6.288;2022-10-30T20:47:29;100502.44;;;22.17
74750;BMP280;63269;53.330;-6.288;2022-10-30T20:49:55;100499.03;;;22.16
74750;BMP280;63269;53.330;-6.288;2022-10-30T20:52:20;100514.31;;;22.16
74750;BMP280;63269;53.330;-6.288;2022-10-30T20:54:45;100505.28;;;22.13
74750;BMP280;63269;53.330;-6.288;2022-10-30T20:57:11;100499.47;;;22.15
74750;BMP280;63269;53.330;-6.288;2022-10-30T20:59:36;100487.31;;;22.14
74750;BMP280;63269;53.330;-6.288;2022-10-30T21:02:02;100491.94;;;22.13
74750;BMP280;63269;53.330;-6.288;2022-10-30T21:04:27;100490.44;;;22.12
74750;BMP280;63269;53.330;-6.288;2022-10-30T21:06:52;100484.34;;;22.12
74750;BMP280;63269;53.330;-6.288;2022-10-30T21:09:18;100488.94;;;22.11
74750;BMP280;63269;53.330;-6.288;2022-10-30T21:11:43;100494.28;;;22.11
74750;BMP280;63269;53.330;-6.288;2022-10-30T21:14:09;100486.72;;;22.10
74750;BMP280;63269;53.330;-6.288;2022-10-30T21:16:34;100495.91;;;22.09
74750;BMP280;63269;53.330;-6.288;2022-10-30T21:19:00;100485.22;;;22.09
74750;BMP280;63269;53.330;-6.288;2022-10-30T21:21:25;100477.66;;;22.07
74750;BMP280;63269;53.330;-6.288;2022-10-30T21:23:53;100473.81;;;22.08
74750;BMP280;63269;53.330;-6.288;2022-10-30T21:26:19;100474.28;;;22.07
74750;BMP280;63269;53.330;-6.288;2022-10-30T21:28:44;100473.53;;;22.06
74750;BMP280;63269;53.330;-6.288;2022-10-30T21:31:11;100483.75;;;22.08
74750;BMP280;63269;53.330;-6.288;2022-10-30T21:33:38;100484.22;;;22.06
74750;BMP280;63269;53.330;-6.288;2022-10-30T21:36:14;100478.13;;;22.06
74750;BMP280;63269;53.330;-6.288;2022-10-30T21:38:41;100480.78;;;22.06
74750;BMP280;63269;53.330;-6.288;2022-10-30T21:41:09;100483.47;;;22.06
74750;BMP280;63269;53.330;-6.288;2022-10-30T21:43:35;100484.38;;;22.02
74750;BMP280;63269;53.330;-6.288;2022-10-30T21:46:08;100472.19;;;22.01
74750;BMP280;63269;53.330;-6.288;2022-10-30T21:48:34;100475.16;;;22.03
74750;BMP280;63269;53.330;-6.288;2022-10-30T21:51:11;100477.06;;;22.03
74750;BMP280;63269;53.330;-6.288;2022-10-30T21:53:38;100465.38;;;22.00
74750;BMP280;63269;53.330;-6.288;2022-10-30T21:56:09;100472.19;;;22.01
74750;BMP280;63269;53.330;-6.288;2022-10-30T21:58:35;100473.41;;;22.00
74750;BMP280;63269;53.330;-6.288;2022-10-30T22:01:01;100474.56;;;21.99
74750;BMP280;63269;53.330;-6.288;2022-10-30T22:03:26;100479.91;;;21.99
74750;BMP280;63269;53.330;-6.288;2022-10-30T22:05:52;100483.78;;;21.98
74750;BMP280;63269;53.330;-6.288;2022-10-30T22:08:17;100469.69;;;21.98
74750;BMP280;63269;53.330;-6.288;2022-10-30T22:10:43;100468.94;;;21.97
74750;BMP280;63269;53.330;-6.288;2022-10-30T22:13:08;100466.25;;;21.97
74750;BMP280;63269;53.330;-6.288;2022-10-30T22:15:34;100462.13;;;21.96
74750;BMP280;63269;53.330;-6.288;2022-10-30T22:17:59;100450.69;;;21.96
74750;BMP280;63269;53.330;-6.288;2022-10-30T22:20:25;100457.94;;;21.95
74750;BMP280;63269;53.330;-6.288;2022-10-30T22:22:52;100459.88;;;21.95
74750;BMP280;63269;53.330;-6.288;2022-10-30T22:25:18;100457.22;;;21.95
74750;BMP280;63269;53.330;-6.288;2022-10-30T22:27:47;100458.69;;;21.96
74750;BMP280;63269;53.330;-6.288;2022-10-30T22:30:13;100457.94;;;21.95
74750;BMP280;63269;53.330;-6.288;2022-10-30T22:32:39;100468.94;;;21.97
74750;BMP280;63269;53.330;-6.288;2022-10-30T22:35:06;100460.91;;;21.97
74750;BMP280;63269;53.330;-6.288;2022-10-30T22:37:31;100465.09;;;21.98
74750;BMP280;63269;53.330;-6.288;2022-10-30T22:39:57;100464.34;;;21.98
74750;BMP280;63269;53.330;-6.288;2022-10-30T22:42:22;100461.69;;;21.98
74750;BMP280;63269;53.330;-6.288;2022-10-30T22:44:47;100466.56;;;21.99
74750;BMP280;63269;53.330;-6.288;2022-10-30T22:47:13;100470.44;;;21.98
74750;BMP280;63269;53.330;-6.288;2022-10-30T22:49:38;100462.41;;;21.98
74750;BMP280;63269;53.330;-6.288;2022-10-30T22:52:05;100468.94;;;21.97
74750;BMP280;63269;53.330;-6.288;2022-10-30T22:54:30;100466.25;;;21.97
74750;BMP280;63269;53.330;-6.288;2022-10-30T22:56:56;100468.94;;;21.97
74750;BMP280;63269;53.330;-6.288;2022-10-30T22:59:21;100468.94;;;21.97
74750;BMP280;63269;53.330;-6.288;2022-10-30T23:01:47;100463.59;;;21.97
74750;BMP280;63269;53.330;-6.288;2022-10-30T23:04:13;100458.25;;;21.97
74750;BMP280;63269;53.330;-6.288;2022-10-30T23:06:42;100451.44;;;21.96
74750;BMP280;63269;53.330;-6.288;2022-10-30T23:09:14;100455.56;;;21.97
74750;BMP280;63269;53.330;-6.288;2022-10-30T23:11:40;100454.84;;;21.97
74750;BMP280;63269;53.330;-6.288;2022-10-30T23:14:06;100448.75;;;21.96
74750;BMP280;63269;53.330;-6.288;2022-10-30T23:16:31;100448.00;;;21.96
74750;BMP280;63269;53.330;-6.288;2022-10-30T23:18:58;100446.53;;;21.95
74750;BMP280;63269;53.330;-6.288;2022-10-30T23:21:26;100437.78;;;21.94
74750;BMP280;63269;53.330;-6.288;2022-10-30T23:23:51;100440.47;;;21.94
74750;BMP280;63269;53.330;-6.288;2022-10-30T23:26:28;100437.78;;;21.94
74750;BMP280;63269;53.330;-6.288;2022-10-30T23:28:55;100441.66;;;21.93
74750;BMP280;63269;53.330;-6.288;2022-10-30T23:33:50;100439.00;;;21.93
74750;BMP280;63269;53.330;-6.288;2022-10-30T23:36:16;100437.50;;;21.92
74750;BMP280;63269;53.330;-6.288;2022-10-30T23:38:41;100435.28;;;21.91
74750;BMP280;63269;53.330;-6.288;2022-10-30T23:41:07;100435.28;;;21.91
74750;BMP280;63269;53.330;-6.288;2022-10-30T23:43:32;100437.19;;;21.90
74750;BMP280;63269;53.330;-6.288;2022-10-30T23:45:57;100431.84;;;21.90
74750;BMP280;63269;53.330;-6.288;2022-10-30T23:48:23;100421.63;;;21.89
74750;BMP280;63269;53.330;-6.288;2022-10-30T23:50:48;100427.72;;;21.89
74750;BMP280;63269;53.330;-6.288;2022-10-30T23:53:14;100432.28;;;21.89
74750;BMP280;63269;53.330;-6.288;2022-10-30T23:55:39;100424.28;;;21.89
74750;BMP280;63269;53.330;-6.288;2022-10-30T23:58:05;100428.88;;;21.88
